Time;durP1;ratioP1;P1;durP2;ratioP2;P2;SDS_P1;SDS_P2;PMS_P1;PMS_P2;Temp;Humidity;BMP_temperature;BMP_pressure;BME280_temperature;BME280_humidity;BME280_pressure;Samples;Min_cycle;Max_cycle;Signal;HPM_P1;HPM_P2
2022/07/13 00:00:12;;;;;;;11.15;5.82;;;;;;;;;;4959416;28;20035;-73
2022/07/13 00:02:37;;;;;;;16.77;7.35;;;;;;;;;;4960384;28;20846;-71
2022/07/13 00:05:06;;;;;;;14.73;6.50;;;;;;;;;;4961897;28;20112;-72
2022/07/13 00:07:33;;;;;;;13.35;7.43;;;;;;;;;;4958679;28;20506;-74
2022/07/13 00:09:59;;;;;;;10.48;7.75;;;;;;;;;;4960845;28;20030;-73
2022/07/13 00:12:24;;;;;;;13.40;7.80;;;;;;;;;;4964855;28;20035;-73
2022/07/13 00:14:52;;;;;;;13.65;6.82;;;;;;;;;;4960348;28;20076;-73
2022/07/13 00:17:17;;;;;;;16.52;8.20;;;;;;;;;;4962119;28;20062;-72
2022/07/13 00:19:42;;;;;;;15.90;7.63;;;;;;;;;;4961017;28;20044;-73
2022/07/13 00:22:08;;;;;;;11.85;6.28;;;;;;;;;;4962375;28;20145;-73
2022/07/13 00:24:33;;;;;;;15.65;8.82;;;;;;;;;;4927285;28;20034;-72
2022/07/13 00:27:03;;;;;;;12.98;8.05;;;;;;;;;;4959310;28;20135;-73
2022/07/13 00:29:30;;;;;;;10.65;6.60;;;;;;;;;;4960737;28;20816;-72
2022/07/13 00:31:55;;;;;;;9.00;6.07;;;;;;;;;;4959771;28;20185;-72
2022/07/13 00:34:21;;;;;;;11.38;6.05;;;;;;;;;;4961171;28;20830;-72
2022/07/13 00:36:46;;;;;;;8.95;6.20;;;;;;;;;;4962107;28;20687;-72
2022/07/13 00:39:12;;;;;;;14.02;6.43;;;;;;;;;;4969393;28;20034;-73
2022/07/13 00:41:45;;;;;;;12.63;6.45;;;;;;;;;;4963153;28;20598;-73
2022/07/13 00:44:10;;;;;;;10.80;5.55;;;;;;;;;;4960909;28;20491;-73
2022/07/13 00:46:37;;;;;;;8.27;5.22;;;;;;;;;;4960462;28;20037;-74
2022/07/13 00:49:03;;;;;;;11.60;5.85;;;;;;;;;;4959044;28;20026;-74
2022/07/13 00:51:29;;;;;;;8.60;5.70;;;;;;;;;;4961678;28;20539;-73
2022/07/13 00:53:54;;;;;;;15.32;9.70;;;;;;;;;;4960998;28;20033;-73
2022/07/13 00:56:20;;;;;;;11.13;7.32;;;;;;;;;;4962546;28;20031;-74
2022/07/13 00:58:45;;;;;;;10.75;6.10;;;;;;;;;;4965884;28;20058;-74
2022/07/13 01:01:10;;;;;;;12.77;5.85;;;;;;;;;;4959334;28;20034;-73
2022/07/13 01:03:36;;;;;;;19.95;10.35;;;;;;;;;;4953787;28;20816;-73
2022/07/13 01:06:04;;;;;;;11.70;6.43;;;;;;;;;;4954928;28;20038;-74
2022/07/13 01:08:29;;;;;;;12.63;6.45;;;;;;;;;;4959647;28;20038;-73
2022/07/13 01:10:56;;;;;;;14.80;5.43;;;;;;;;;;4960349;28;20056;-74
2022/07/13 01:13:24;;;;;;;12.82;6.45;;;;;;;;;;4959418;28;20109;-74
2022/07/13 01:15:49;;;;;;;13.05;6.00;;;;;;;;;;4938805;28;20539;-74
2022/07/13 01:18:17;;;;;;;13.50;5.95;;;;;;;;;;4963795;28;20042;-74
2022/07/13 01:20:42;;;;;;;14.38;5.60;;;;;;;;;;4959847;28;20038;-73
2022/07/13 01:23:11;;;;;;;10.40;5.30;;;;;;;;;;4959814;28;20632;-74
2022/07/13 01:25:37;;;;;;;11.05;5.20;;;;;;;;;;4969292;28;20031;-72
2022/07/13 01:28:02;;;;;;;15.07;6.18;;;;;;;;;;4962402;28;20120;-73
2022/07/13 01:30:28;;;;;;;12.23;5.40;;;;;;;;;;4964844;28;20046;-72
2022/07/13 01:32:53;;;;;;;10.52;5.65;;;;;;;;;;4962792;28;20074;-72
2022/07/13 01:35:22;;;;;;;14.18;5.53;;;;;;;;;;4960604;28;20062;-72
2022/07/13 01:37:48;;;;;;;8.90;4.97;;;;;;;;;;4962715;28;21489;-72
2022/07/13 01:40:14;;;;;;;12.48;6.07;;;;;;;;;;4959108;28;20034;-72
2022/07/13 01:42:46;;;;;;;9.65;6.25;;;;;;;;;;4965130;28;20074;-72
2022/07/13 01:45:12;;;;;;;7.63;5.30;;;;;;;;;;4961176;28;20035;-71
2022/07/13 01:47:38;;;;;;;7.90;5.18;;;;;;;;;;4959967;28;20859;-72
2022/07/13 01:50:05;;;;;;;7.25;5.40;;;;;;;;;;4963646;28;20030;-72
2022/07/13 01:52:30;;;;;;;8.10;4.68;;;;;;;;;;4960401;28;20136;-72
2022/07/13 01:54:55;;;;;;;6.32;4.78;;;;;;;;;;4960572;28;20026;-72
2022/07/13 01:57:20;;;;;;;12.50;5.80;;;;;;;;;;4960213;28;20041;-72
2022/07/13 01:59:46;;;;;;;12.40;7.32;;;;;;;;;;4961147;28;20112;-67
2022/07/13 02:02:11;;;;;;;8.15;5.97;;;;;;;;;;4959143;28;20136;-72
2022/07/13 02:04:36;;;;;;;9.32;6.85;;;;;;;;;;4963800;28;20558;-73
2022/07/13 02:07:02;;;;;;;7.72;6.15;;;;;;;;;;4960845;28;20323;-73
2022/07/13 02:09:27;;;;;;;5.93;4.70;;;;;;;;;;4959964;28;20034;-73
2022/07/13 02:11:52;;;;;;;6.30;4.30;;;;;;;;;;4957325;28;20034;-73
2022/07/13 02:14:18;;;;;;;6.20;5.38;;;;;;;;;;4961254;28;20084;-73
2022/07/13 02:16:43;;;;;;;7.07;6.38;;;;;;;;;;4964010;28;20136;-73
2022/07/13 02:19:09;;;;;;;8.60;6.05;;;;;;;;;;4965322;28;20593;-74
2022/07/13 02:21:34;;;;;;;6.50;4.40;;;;;;;;;;4965431;28;20118;-73
2022/07/13 02:24:01;;;;;;;5.80;4.15;;;;;;;;;;4966762;28;20873;-73
2022/07/13 02:26:27;;;;;;;7.35;4.45;;;;;;;;;;4964292;28;20038;-74
2022/07/13 02:28:52;;;;;;;6.85;4.40;;;;;;;;;;4965767;28;20026;-74
2022/07/13 02:31:19;;;;;;;6.22;4.18;;;;;;;;;;4968676;28;20465;-74
2022/07/13 02:33:46;;;;;;;8.10;4.63;;;;;;;;;;4961186;28;20038;-73
2022/07/13 02:36:12;;;;;;;4.70;4.15;;;;;;;;;;4964148;28;20033;-74
2022/07/13 02:38:39;;;;;;;7.10;4.18;;;;;;;;;;4968154;28;20821;-74
2022/07/13 02:41:04;;;;;;;7.10;3.80;;;;;;;;;;4946733;28;20062;-73
2022/07/13 02:43:30;;;;;;;7.40;4.05;;;;;;;;;;4963519;28;20056;-73
2022/07/13 02:45:57;;;;;;;6.43;4.82;;;;;;;;;;4964828;28;20034;-72
2022/07/13 02:48:23;;;;;;;7.70;4.40;;;;;;;;;;4969491;28;20031;-73
2022/07/13 02:50:48;;;;;;;6.15;4.68;;;;;;;;;;4962695;28;20037;-72
2022/07/13 02:53:13;;;;;;;8.57;4.97;;;;;;;;;;4964008;28;20041;-74
2022/07/13 02:55:39;;;;;;;6.20;4.93;;;;;;;;;;4961785;28;20051;-72
2022/07/13 02:58:04;;;;;;;6.55;5.05;;;;;;;;;;4964834;28;20856;-73
2022/07/13 03:00:30;;;;;;;8.75;5.65;;;;;;;;;;4965756;28;20688;-73
2022/07/13 03:02:55;;;;;;;6.65;5.70;;;;;;;;;;4962795;28;20041;-73
2022/07/13 03:05:23;;;;;;;9.25;5.78;;;;;;;;;;4962253;28;20585;-73
2022/07/13 03:07:48;;;;;;;11.00;5.93;;;;;;;;;;4963057;28;20030;-73
2022/07/13 03:10:13;;;;;;;7.80;6.07;;;;;;;;;;4964276;28;20858;-73
2022/07/13 03:12:40;;;;;;;7.75;5.93;;;;;;;;;;4962445;28;20039;-74
2022/07/13 03:15:06;;;;;;;8.70;5.68;;;;;;;;;;4963166;28;20054;-74
2022/07/13 03:17:31;;;;;;;12.63;6.50;;;;;;;;;;4970695;28;20673;-73
2022/07/13 03:19:57;;;;;;;9.68;5.97;;;;;;;;;;4963581;28;20739;-74
2022/07/13 03:22:24;;;;;;;8.05;5.85;;;;;;;;;;4965184;28;20034;-73
2022/07/13 03:24:50;;;;;;;9.55;6.50;;;;;;;;;;4963602;28;20798;-72
2022/07/13 03:27:16;;;;;;;9.82;6.50;;;;;;;;;;4961535;28;20035;-72
2022/07/13 03:29:41;;;;;;;9.27;7.25;;;;;;;;;;4964012;28;20904;-73
2022/07/13 03:32:06;;;;;;;9.90;7.40;;;;;;;;;;4959294;28;20034;-73
2022/07/13 03:34:31;;;;;;;11.23;7.03;;;;;;;;;;4963826;28;20027;-72
2022/07/13 03:36:57;;;;;;;9.35;7.13;;;;;;;;;;4962369;28;20034;-73
2022/07/13 03:39:22;;;;;;;11.00;7.70;;;;;;;;;;4963183;28;20125;-73
2022/07/13 03:41:48;;;;;;;10.65;7.45;;;;;;;;;;4945616;28;20093;-73
2022/07/13 03:44:15;;;;;;;10.95;8.07;;;;;;;;;;4959978;28;20754;-73
2022/07/13 03:46:41;;;;;;;9.85;7.57;;;;;;;;;;4964668;28;20027;-73
2022/07/13 03:49:08;;;;;;;14.70;8.50;;;;;;;;;;4960032;28;20582;-73
2022/07/13 03:51:34;;;;;;;8.02;7.22;;;;;;;;;;4967752;28;20108;-73
2022/07/13 03:54:01;;;;;;;11.18;7.85;;;;;;;;;;4961056;28;20181;-73
2022/07/13 03:56:27;;;;;;;10.63;7.93;;;;;;;;;;4946516;28;20026;-73
2022/07/13 03:58:52;;;;;;;11.82;8.10;;;;;;;;;;4963348;28;20133;-73
2022/07/13 04:01:19;;;;;;;11.18;8.10;;;;;;;;;;4968893;28;20041;-73
2022/07/13 04:03:44;;;;;;;10.18;8.00;;;;;;;;;;4945645;28;20038;-73
2022/07/13 04:06:10;;;;;;;8.55;7.40;;;;;;;;;;4963489;28;20845;-73
2022/07/13 04:08:35;;;;;;;12.07;7.25;;;;;;;;;;4961993;28;20514;-73
2022/07/13 04:11:02;;;;;;;9.30;7.25;;;;;;;;;;4962285;28;20030;-72
2022/07/13 04:13:29;;;;;;;10.63;7.85;;;;;;;;;;4962668;28;20034;-72
2022/07/13 04:15:55;;;;;;;15.15;7.72;;;;;;;;;;4962423;28;20038;-71
2022/07/13 04:18:20;;;;;;;12.73;7.78;;;;;;;;;;4968683;28;20120;-71
2022/07/13 04:20:45;;;;;;;9.88;7.82;;;;;;;;;;4941205;28;20030;-70
2022/07/13 04:23:11;;;;;;;10.57;7.55;;;;;;;;;;4959975;28;20038;-71
2022/07/13 04:25:37;;;;;;;11.05;8.10;;;;;;;;;;4962145;28;20044;-71
2022/07/13 04:28:02;;;;;;;12.82;7.82;;;;;;;;;;4962836;28;20038;-71
2022/07/13 04:30:29;;;;;;;10.75;7.63;;;;;;;;;;4962227;28;20034;-72
2022/07/13 04:32:55;;;;;;;11.43;8.05;;;;;;;;;;4962417;28;20045;-72
2022/07/13 04:35:23;;;;;;;12.70;8.70;;;;;;;;;;4962212;28;20058;-71
2022/07/13 04:37:48;;;;;;;14.02;9.05;;;;;;;;;;4960653;28;20065;-72
2022/07/13 04:40:16;;;;;;;14.10;9.93;;;;;;;;;;4960873;28;20045;-71
2022/07/13 04:42:41;;;;;;;14.70;9.70;;;;;;;;;;4961980;28;20140;-71
2022/07/13 04:45:07;;;;;;;14.02;10.50;;;;;;;;;;4963240;28;20026;-71
2022/07/13 04:47:32;;;;;;;13.80;10.57;;;;;;;;;;4961423;28;20154;-71
2022/07/13 04:49:58;;;;;;;13.65;10.60;;;;;;;;;;4961444;28;20041;-69
2022/07/13 04:52:24;;;;;;;13.82;9.32;;;;;;;;;;4980578;28;20038;-71
2022/07/13 04:54:50;;;;;;;12.15;7.95;;;;;;;;;;4985367;28;20029;-69
2022/07/13 04:57:15;;;;;;;10.07;7.53;;;;;;;;;;4973497;28;20031;-69
2022/07/13 04:59:41;;;;;;;10.55;6.10;;;;;;;;;;4974366;28;20149;-67
2022/07/13 05:02:07;;;;;;;10.45;5.50;;;;;;;;;;4985808;28;20121;-70
2022/07/13 05:04:33;;;;;;;7.28;4.35;;;;;;;;;;4997946;28;20030;-70
2022/07/13 05:07:00;;;;;;;7.03;4.65;;;;;;;;;;4982584;28;20044;-70
2022/07/13 05:09:26;;;;;;;6.00;4.18;;;;;;;;;;4981265;28;20062;-69
2022/07/13 05:11:52;;;;;;;11.00;4.15;;;;;;;;;;4985286;28;20096;-70
2022/07/13 05:14:17;;;;;;;7.22;4.10;;;;;;;;;;4987038;28;20038;-70
2022/07/13 05:16:43;;;;;;;6.40;4.20;;;;;;;;;;4986103;28;20038;-70
2022/07/13 05:19:08;;;;;;;7.57;4.40;;;;;;;;;;4982612;28;20034;-71
2022/07/13 05:21:33;;;;;;;7.95;4.40;;;;;;;;;;4986303;28;20087;-69
2022/07/13 05:23:59;;;;;;;7.45;4.28;;;;;;;;;;4990651;28;20096;-71
2022/07/13 05:26:24;;;;;;;8.20;4.20;;;;;;;;;;4986154;28;20050;-71
2022/07/13 05:28:49;;;;;;;10.07;4.45;;;;;;;;;;5002042;28;20716;-71
2022/07/13 05:31:15;;;;;;;7.30;4.20;;;;;;;;;;4988230;28;20502;-72
2022/07/13 05:33:42;;;;;;;6.68;3.75;;;;;;;;;;5003080;28;20065;-70
2022/07/13 05:36:10;;;;;;;9.15;4.25;;;;;;;;;;4993117;28;20019;-70
2022/07/13 05:38:36;;;;;;;10.93;4.00;;;;;;;;;;4985523;28;20057;-71
2022/07/13 05:41:02;;;;;;;8.10;4.13;;;;;;;;;;4986176;28;20030;-72
2022/07/13 05:43:27;;;;;;;7.90;4.32;;;;;;;;;;4986472;28;20486;-71
2022/07/13 05:45:52;;;;;;;13.35;4.68;;;;;;;;;;4984527;28;20399;-72
2022/07/13 05:48:18;;;;;;;10.45;5.05;;;;;;;;;;4986352;28;20041;-71
2022/07/13 05:50:44;;;;;;;10.00;4.95;;;;;;;;;;4985459;28;20026;-71
2022/07/13 05:53:09;;;;;;;6.82;4.57;;;;;;;;;;4999158;28;20041;-71
2022/07/13 05:55:35;;;;;;;6.50;4.70;;;;;;;;;;4987717;28;20052;-72
2022/07/13 05:58:00;;;;;;;8.07;4.80;;;;;;;;;;4990390;28;20034;-72
2022/07/13 06:00:25;;;;;;;7.43;5.07;;;;;;;;;;4989795;28;20022;-71
2022/07/13 06:02:53;;;;;;;10.82;4.38;;;;;;;;;;4990223;28;20372;-72
2022/07/13 06:05:21;;;;;;;10.52;4.90;;;;;;;;;;4990798;28;20040;-67
2022/07/13 06:07:46;;;;;;;11.48;4.80;;;;;;;;;;4981503;28;20041;-67
2022/07/13 06:10:14;;;;;;;10.68;4.53;;;;;;;;;;4985573;28;20034;-69
2022/07/13 06:12:39;;;;;;;9.82;4.45;;;;;;;;;;4986603;28;20064;-69
2022/07/13 06:15:05;;;;;;;7.93;4.43;;;;;;;;;;4987697;28;20406;-68
2022/07/13 06:17:30;;;;;;;7.95;4.57;;;;;;;;;;4982790;28;20074;-69
2022/07/13 06:19:55;;;;;;;10.23;4.20;;;;;;;;;;4983677;28;20091;-69
2022/07/13 06:22:21;;;;;;;8.98;4.43;;;;;;;;;;4986985;28;20042;-68
2022/07/13 06:24:46;;;;;;;7.50;4.20;;;;;;;;;;4988074;28;20026;-68
2022/07/13 06:27:11;;;;;;;8.02;3.92;;;;;;;;;;4987137;28;20070;-69
2022/07/13 06:29:39;;;;;;;9.57;4.18;;;;;;;;;;5002259;28;20592;-67
2022/07/13 06:32:05;;;;;;;8.80;4.20;;;;;;;;;;4984806;28;20121;-70
2022/07/13 06:34:30;;;;;;;9.73;3.83;;;;;;;;;;4964790;28;20108;-73
2022/07/13 06:36:56;;;;;;;11.40;4.20;;;;;;;;;;4970453;28;20026;-73
2022/07/13 06:39:23;;;;;;;10.48;4.10;;;;;;;;;;4957198;28;20270;-73
2022/07/13 06:41:48;;;;;;;9.48;3.85;;;;;;;;;;4963274;28;20088;-73
2022/07/13 06:44:14;;;;;;;8.63;3.88;;;;;;;;;;4961683;28;20058;-73
2022/07/13 06:46:40;;;;;;;9.13;4.47;;;;;;;;;;4962724;28;20133;-73
2022/07/13 06:49:05;;;;;;;14.52;4.00;;;;;;;;;;4962472;28;20490;-74
2022/07/13 06:51:30;;;;;;;10.40;4.05;;;;;;;;;;4961638;28;20031;-73
2022/07/13 06:53:56;;;;;;;14.80;4.13;;;;;;;;;;4962339;28;20058;-73
2022/07/13 06:56:23;;;;;;;7.72;3.40;;;;;;;;;;4962774;28;20081;-73
2022/07/13 06:58:51;;;;;;;9.47;3.57;;;;;;;;;;4962767;28;20475;-72
2022/07/13 07:01:19;;;;;;;6.07;3.90;;;;;;;;;;4962831;28;20034;-68
2022/07/13 07:03:46;;;;;;;7.38;3.65;;;;;;;;;;4985473;28;20034;-69
2022/07/13 07:06:12;;;;;;;8.25;4.20;;;;;;;;;;4994336;28;20042;-69
2022/07/13 07:08:39;;;;;;;6.43;3.63;;;;;;;;;;4987000;28;20027;-69
2022/07/13 07:11:05;;;;;;;8.32;3.78;;;;;;;;;;4984553;28;20042;-71
2022/07/13 07:13:30;;;;;;;9.10;3.88;;;;;;;;;;4989624;28;20041;-68
2022/07/13 07:15:55;;;;;;;7.60;3.97;;;;;;;;;;4986488;28;20042;-68
2022/07/13 07:18:24;;;;;;;6.03;3.58;;;;;;;;;;4986685;28;20129;-69
2022/07/13 07:20:52;;;;;;;7.15;3.95;;;;;;;;;;4984921;28;20061;-69
2022/07/13 07:23:17;;;;;;;5.88;3.60;;;;;;;;;;4983153;28;20038;-69
2022/07/13 07:25:45;;;;;;;7.85;3.83;;;;;;;;;;4990409;28;20042;-67
2022/07/13 07:28:11;;;;;;;6.93;4.30;;;;;;;;;;4986042;28;20507;-68
2022/07/13 07:30:36;;;;;;;6.63;3.85;;;;;;;;;;4987455;28;20026;-69
2022/07/13 07:33:02;;;;;;;9.23;3.90;;;;;;;;;;4985327;28;20030;-68
2022/07/13 07:35:28;;;;;;;5.57;3.67;;;;;;;;;;4993045;28;20030;-68
2022/07/13 07:37:53;;;;;;;7.78;3.67;;;;;;;;;;4986981;28;20074;-69
2022/07/13 07:40:18;;;;;;;7.78;3.80;;;;;;;;;;4978967;28;20113;-69
2022/07/13 07:42:44;;;;;;;9.52;3.70;;;;;;;;;;4985957;28;20418;-70
2022/07/13 07:45:14;;;;;;;8.32;3.83;;;;;;;;;;4989007;28;20177;-68
2022/07/13 07:47:39;;;;;;;6.72;3.75;;;;;;;;;;4989061;28;20503;-69
2022/07/13 07:50:05;;;;;;;5.32;3.67;;;;;;;;;;4974525;28;20212;-69
2022/07/13 07:52:31;;;;;;;9.30;4.00;;;;;;;;;;4986320;28;20114;-68
2022/07/13 07:54:56;;;;;;;5.60;3.50;;;;;;;;;;4987374;28;20109;-68
2022/07/13 07:57:22;;;;;;;7.63;3.58;;;;;;;;;;4986586;28;20038;-68
2022/07/13 07:59:47;;;;;;;10.27;4.07;;;;;;;;;;4987145;28;20039;-69
2022/07/13 08:02:12;;;;;;;9.10;3.67;;;;;;;;;;4987271;28;20044;-68
2022/07/13 08:04:38;;;;;;;6.32;3.83;;;;;;;;;;4962039;28;20038;-70
2022/07/13 08:07:03;;;;;;;7.15;3.58;;;;;;;;;;4968294;28;20041;-68
2022/07/13 08:09:29;;;;;;;6.07;3.53;;;;;;;;;;4976245;28;20359;-70
2022/07/13 08:11:54;;;;;;;8.40;4.20;;;;;;;;;;4980037;28;20108;-69
2022/07/13 08:14:23;;;;;;;8.25;3.58;;;;;;;;;;4971560;28;20062;-69
2022/07/13 08:16:48;;;;;;;8.77;4.43;;;;;;;;;;4975541;28;20787;-69
2022/07/13 08:19:15;;;;;;;6.32;4.00;;;;;;;;;;4974615;28;20098;-71
2022/07/13 08:21:40;;;;;;;5.78;3.58;;;;;;;;;;4965525;28;20521;-69
2022/07/13 08:24:07;;;;;;;8.23;4.32;;;;;;;;;;4973501;28;20052;-69
2022/07/13 08:26:32;;;;;;;7.15;4.07;;;;;;;;;;4973613;28;20042;-71
2022/07/13 08:28:58;;;;;;;6.43;4.35;;;;;;;;;;4974268;28;20093;-71
2022/07/13 08:31:24;;;;;;;9.65;4.38;;;;;;;;;;4977122;28;20058;-71
2022/07/13 08:39:18;;;;;;;9.90;3.70;;;;;;;;;;4981843;28;20368;-70
2022/07/13 08:41:44;;;;;;;8.13;4.28;;;;;;;;;;4982001;28;20038;-70
2022/07/13 08:44:09;;;;;;;5.80;3.72;;;;;;;;;;4983696;28;20049;-69
2022/07/13 08:46:37;;;;;;;7.53;4.47;;;;;;;;;;4982491;28;20062;-70
2022/07/13 08:49:03;;;;;;;9.27;4.18;;;;;;;;;;4989774;28;20086;-68
2022/07/13 08:51:29;;;;;;;7.50;3.72;;;;;;;;;;4985897;28;20019;-69
2022/07/13 08:53:55;;;;;;;6.28;3.80;;;;;;;;;;4982937;28;20116;-70
2022/07/13 08:56:21;;;;;;;7.53;4.00;;;;;;;;;;4984577;28;20097;-70
2022/07/13 08:58:46;;;;;;;7.35;4.03;;;;;;;;;;4977804;28;20070;-69
2022/07/13 09:01:14;;;;;;;7.28;3.60;;;;;;;;;;4975966;28;20042;-70
2022/07/13 09:03:40;;;;;;;6.75;3.50;;;;;;;;;;4979617;28;20133;-65
2022/07/13 09:06:06;;;;;;;7.07;3.65;;;;;;;;;;4981266;28;25058;-65
2022/07/13 09:08:39;;;;;;;9.15;3.35;;;;;;;;;;4978985;28;20038;-67
2022/07/13 09:11:05;;;;;;;6.20;4.05;;;;;;;;;;4977101;28;20050;-69
2022/07/13 09:13:39;;;;;;;7.85;3.50;;;;;;;;;;4985779;28;20061;-70
2022/07/13 09:16:33;;;;;;;6.55;3.90;;;;;;;;;;4984548;28;20045;-69
2022/07/13 09:19:02;;;;;;;9.10;3.63;;;;;;;;;;4986866;28;20077;-70
2022/07/13 09:21:32;;;;;;;9.10;3.78;;;;;;;;;;4976151;28;20613;-69
2022/07/13 09:24:01;;;;;;;6.15;3.35;;;;;;;;;;4960273;28;20073;-69
2022/07/13 09:26:42;;;;;;;8.95;3.63;;;;;;;;;;4974576;28;20042;-68
2022/07/13 09:29:11;;;;;;;10.43;4.00;;;;;;;;;;4981469;28;20037;-69
2022/07/13 09:31:50;;;;;;;6.40;3.50;;;;;;;;;;4982980;28;20046;-69
2022/07/13 09:34:15;;;;;;;6.40;3.67;;;;;;;;;;4981052;28;20065;-69
2022/07/13 09:36:44;;;;;;;6.72;3.30;;;;;;;;;;4980793;28;20073;-67
2022/07/13 09:39:12;;;;;;;6.65;3.65;;;;;;;;;;4982111;28;20093;-69
2022/07/13 09:41:37;;;;;;;7.03;3.83;;;;;;;;;;4979746;28;20050;-68
2022/07/13 09:46:57;;;;;;;7.22;4.03;;;;;;;;;;4978712;28;20077;-70
2022/07/13 09:49:29;;;;;;;7.93;3.85;;;;;;;;;;4984403;28;20170;-70
2022/07/13 09:51:56;;;;;;;5.78;3.50;;;;;;;;;;4983268;28;20057;-69
2022/07/13 09:54:29;;;;;;;6.22;2.75;;;;;;;;;;4984183;28;20440;-68
2022/07/13 09:56:56;;;;;;;4.30;3.10;;;;;;;;;;4998352;28;20027;-69
2022/07/13 09:59:21;;;;;;;5.85;3.05;;;;;;;;;;5010562;28;20037;-69
2022/07/13 10:01:50;;;;;;;6.95;3.30;;;;;;;;;;5009371;28;20038;-71
2022/07/13 10:04:15;;;;;;;6.68;2.83;;;;;;;;;;4980496;28;20117;-70
2022/07/13 10:06:40;;;;;;;4.72;2.70;;;;;;;;;;4998858;28;20618;-69
2022/07/13 10:09:06;;;;;;;6.72;3.03;;;;;;;;;;4966654;28;20045;-69
2022/07/13 10:11:33;;;;;;;5.95;3.00;;;;;;;;;;4980092;28;20392;-69
2022/07/13 10:13:58;;;;;;;6.53;3.00;;;;;;;;;;4985156;28;20035;-70
2022/07/13 10:16:27;;;;;;;6.45;2.78;;;;;;;;;;4984037;28;20041;-69
2022/07/13 10:18:54;;;;;;;5.50;3.17;;;;;;;;;;4986617;28;20264;-68
2022/07/13 10:21:37;;;;;;;10.05;2.90;;;;;;;;;;4988680;28;20467;-68
2022/07/13 10:24:12;;;;;;;6.80;2.90;;;;;;;;;;4982183;28;20050;-68
2022/07/13 10:26:38;;;;;;;6.38;3.22;;;;;;;;;;4984764;28;20038;-68
2022/07/13 10:29:05;;;;;;;5.25;2.85;;;;;;;;;;4984219;28;20031;-69
2022/07/13 10:31:31;;;;;;;7.28;2.90;;;;;;;;;;4983644;28;20031;-71
2022/07/13 10:33:57;;;;;;;4.80;2.40;;;;;;;;;;4982142;28;20200;-69
2022/07/13 10:36:41;;;;;;;6.18;2.80;;;;;;;;;;4984385;28;20060;-69
2022/07/13 10:39:07;;;;;;;6.47;2.58;;;;;;;;;;4989635;28;20026;-69
2022/07/13 10:41:33;;;;;;;5.18;2.75;;;;;;;;;;4989652;28;20034;-68
2022/07/13 10:44:24;;;;;;;6.20;2.67;;;;;;;;;;4991799;28;20046;-70
2022/07/13 10:46:55;;;;;;;5.05;2.67;;;;;;;;;;4990007;28;20027;-70
2022/07/13 10:49:32;;;;;;;8.50;3.35;;;;;;;;;;4988803;28;20053;-69
2022/07/13 10:52:19;;;;;;;10.07;2.67;;;;;;;;;;4991690;28;20089;-71
2022/07/13 10:55:13;;;;;;;8.52;3.25;;;;;;;;;;4983324;28;20153;-70
2022/07/13 10:57:39;;;;;;;6.47;2.92;;;;;;;;;;4981019;28;20637;-69
2022/07/13 11:00:16;;;;;;;5.63;3.53;;;;;;;;;;4976501;28;20057;-68
2022/07/13 11:02:43;;;;;;;5.75;2.78;;;;;;;;;;4978759;28;20637;-70
2022/07/13 11:05:08;;;;;;;5.63;3.10;;;;;;;;;;4980870;28;20117;-70
2022/07/13 11:07:41;;;;;;;7.22;3.28;;;;;;;;;;4991141;28;20098;-72
2022/07/13 11:10:18;;;;;;;6.47;2.95;;;;;;;;;;4980050;28;20030;-70
2022/07/13 11:13:05;;;;;;;5.97;3.05;;;;;;;;;;4983192;28;20057;-69
2022/07/13 11:15:42;;;;;;;8.82;3.80;;;;;;;;;;4981113;28;20047;-68
2022/07/13 11:18:29;;;;;;;7.60;3.22;;;;;;;;;;4988088;28;20034;-68
2022/07/13 11:20:54;;;;;;;7.07;3.33;;;;;;;;;;5017796;28;20030;-68
2022/07/13 11:26:12;;;;;;;5.00;3.28;;;;;;;;;;4969137;28;20027;-68
2022/07/13 11:28:44;;;;;;;5.38;3.35;;;;;;;;;;4983977;28;20113;-69
2022/07/13 11:31:10;;;;;;;;;;;;;;;;;;4986593;28;20069;-68
2022/07/13 11:33:36;;;;;;;5.55;3.10;;;;;;;;;;4996462;28;20370;-67
2022/07/13 11:36:01;;;;;;;6.00;3.28;;;;;;;;;;4988975;28;20041;-67
2022/07/13 11:38:34;;;;;;;5.68;3.40;;;;;;;;;;4985573;28;20049;-69
2022/07/13 11:41:00;;;;;;;5.85;3.20;;;;;;;;;;4986709;28;20033;-70
2022/07/13 11:43:25;;;;;;;9.73;3.17;;;;;;;;;;4983480;28;20045;-67
2022/07/13 11:45:50;;;;;;;6.25;2.90;;;;;;;;;;4980275;28;20034;-67
2022/07/13 11:48:16;;;;;;;5.72;2.70;;;;;;;;;;4983602;28;20785;-69
2022/07/13 11:50:46;;;;;;;6.20;2.78;;;;;;;;;;4972487;28;20436;-70
2022/07/13 11:53:30;;;;;;;5.35;2.85;;;;;;;;;;4998301;28;20053;-69
2022/07/13 11:55:57;;;;;;;5.88;2.88;;;;;;;;;;4976530;28;20038;-69
2022/07/13 11:58:28;;;;;;;9.32;3.42;;;;;;;;;;4984466;28;20053;-67
2022/07/13 12:00:54;;;;;;;9.90;3.10;;;;;;;;;;4983982;28;20154;-67
2022/07/13 12:03:24;;;;;;;10.10;3.30;;;;;;;;;;4976101;28;20513;-70
2022/07/13 12:05:49;;;;;;;10.27;3.42;;;;;;;;;;4973499;28;20467;-69
2022/07/13 12:08:15;;;;;;;8.05;3.33;;;;;;;;;;4975898;28;20042;-65
2022/07/13 12:10:40;;;;;;;11.35;3.20;;;;;;;;;;4973507;28;20049;-69
2022/07/13 12:13:06;;;;;;;8.55;3.40;;;;;;;;;;4971902;28;20034;-68
2022/07/13 12:15:33;;;;;;;12.35;3.42;;;;;;;;;;4977725;28;20042;-67
2022/07/13 12:18:02;;;;;;;10.98;3.47;;;;;;;;;;4979616;28;20046;-68
2022/07/13 12:20:31;;;;;;;7.95;3.13;;;;;;;;;;4980637;28;20152;-67
2022/07/13 12:22:57;;;;;;;10.45;3.42;;;;;;;;;;4981899;28;20050;-67
2022/07/13 12:25:28;;;;;;;10.23;3.28;;;;;;;;;;4962442;28;20084;-67
2022/07/13 12:27:55;;;;;;;6.80;2.90;;;;;;;;;;4975266;28;20035;-67
2022/07/13 12:30:20;;;;;;;11.57;3.20;;;;;;;;;;4981167;28;20037;-67
2022/07/13 12:32:56;;;;;;;9.27;3.33;;;;;;;;;;4978577;28;20343;-68
2022/07/13 12:35:26;;;;;;;10.32;3.53;;;;;;;;;;4978080;28;20151;-67
2022/07/13 12:37:52;;;;;;;10.77;3.65;;;;;;;;;;4978625;28;20041;-66
2022/07/13 12:40:36;;;;;;;10.30;3.13;;;;;;;;;;4981285;28;20034;-67
2022/07/13 12:43:03;;;;;;;15.27;3.45;;;;;;;;;;4978521;28;20046;-67
2022/07/13 12:45:31;;;;;;;8.98;2.90;;;;;;;;;;4977000;28;20037;-67
2022/07/13 12:47:56;;;;;;;7.72;3.03;;;;;;;;;;4972549;28;20493;-67
2022/07/13 12:50:45;;;;;;;8.70;3.15;;;;;;;;;;4973915;28;20038;-67
2022/07/13 12:53:10;;;;;;;11.45;3.35;;;;;;;;;;4973748;28;20031;-68
2022/07/13 12:55:55;;;;;;;13.18;3.20;;;;;;;;;;4958325;28;20042;-67
2022/07/13 12:58:38;;;;;;;13.23;3.28;;;;;;;;;;4967740;28;20794;-67
2022/07/13 13:01:08;;;;;;;13.90;3.17;;;;;;;;;;4969109;28;20092;-69
2022/07/13 13:03:37;;;;;;;13.88;3.25;;;;;;;;;;4969884;28;20050;-68
2022/07/13 13:06:02;;;;;;;10.13;3.30;;;;;;;;;;4961660;28;20089;-64
2022/07/13 13:08:28;;;;;;;11.15;3.65;;;;;;;;;;4963161;28;20046;-67
2022/07/13 13:10:53;;;;;;;13.43;4.00;;;;;;;;;;4962417;28;20131;-64
2022/07/13 13:13:18;;;;;;;9.65;3.60;;;;;;;;;;4960771;28;20082;-65
2022/07/13 13:15:44;;;;;;;11.25;3.88;;;;;;;;;;4960826;28;20077;-66
2022/07/13 13:18:09;;;;;;;12.60;3.70;;;;;;;;;;4967318;28;20050;-65
2022/07/13 13:20:35;;;;;;;15.80;3.75;;;;;;;;;;4964103;28;20634;-68
2022/07/13 13:23:03;;;;;;;11.95;3.50;;;;;;;;;;4960971;28;20085;-67
2022/07/13 13:25:28;;;;;;;13.20;3.83;;;;;;;;;;4963654;28;20849;-71
2022/07/13 13:27:53;;;;;;;16.05;3.90;;;;;;;;;;4965031;28;20189;-73
2022/07/13 13:33:03;;;;;;;12.20;3.70;;;;;;;;;;4972489;28;20034;-68
2022/07/13 13:35:29;;;;;;;18.25;4.03;;;;;;;;;;4979722;28;20050;-69
2022/07/13 13:37:57;;;;;;;15.27;3.67;;;;;;;;;;4976744;28;20042;-68
2022/07/13 13:40:23;;;;;;;13.70;3.50;;;;;;;;;;4984621;28;20548;-67
2022/07/13 13:42:48;;;;;;;15.95;4.05;;;;;;;;;;4983478;28;20034;-68
2022/07/13 13:45:14;;;;;;;14.70;3.33;;;;;;;;;;4980239;28;20763;-67
2022/07/13 13:47:39;;;;;;;17.38;3.45;;;;;;;;;;4978546;28;20106;-66
2022/07/13 13:50:05;;;;;;;14.30;3.50;;;;;;;;;;4978442;28;20548;-70
2022/07/13 13:52:30;;;;;;;15.23;3.72;;;;;;;;;;4979259;28;20427;-69
2022/07/13 13:54:55;;;;;;;20.42;3.58;;;;;;;;;;4983074;28;20033;-68
2022/07/13 13:57:22;;;;;;;18.98;3.58;;;;;;;;;;4973580;28;20041;-66
2022/07/13 13:59:47;;;;;;;19.23;3.60;;;;;;;;;;4968853;28;20034;-69
2022/07/13 14:02:13;;;;;;;23.10;3.90;;;;;;;;;;4966567;28;20374;-69
2022/07/13 14:04:38;;;;;;;21.25;3.90;;;;;;;;;;4967504;28;20125;-68
2022/07/13 14:07:06;;;;;;;15.13;3.33;;;;;;;;;;4968321;28;20026;-68
2022/07/13 14:09:31;;;;;;;15.93;3.00;;;;;;;;;;4941157;28;20621;-69
2022/07/13 14:11:59;;;;;;;18.60;3.78;;;;;;;;;;4947979;28;21064;-67
2022/07/13 14:14:24;;;;;;;21.05;3.67;;;;;;;;;;4941812;28;20030;-64
2022/07/13 14:16:49;;;;;;;14.85;2.92;;;;;;;;;;4946345;28;20081;-67
2022/07/13 14:19:15;;;;;;;18.05;3.35;;;;;;;;;;4942293;28;20070;-70
2022/07/13 14:21:40;;;;;;;20.20;3.15;;;;;;;;;;4937052;28;20035;-68
2022/07/13 14:24:08;;;;;;;19.77;2.80;;;;;;;;;;4938350;28;20129;-68
2022/07/13 14:26:35;;;;;;;19.70;3.15;;;;;;;;;;4939266;28;20035;-68
2022/07/13 14:29:00;;;;;;;19.50;2.95;;;;;;;;;;4938088;28;20559;-69
2022/07/13 14:31:28;;;;;;;13.63;2.72;;;;;;;;;;4952722;28;20035;-68
2022/07/13 14:33:56;;;;;;;23.75;3.10;;;;;;;;;;4936721;28;20039;-66
2022/07/13 14:36:24;;;;;;;18.75;3.10;;;;;;;;;;4939014;28;22254;-65
2022/07/13 14:38:50;;;;;;;13.63;2.90;;;;;;;;;;4945875;28;20026;-75
2022/07/13 14:41:15;;;;;;;18.00;2.90;;;;;;;;;;4947638;28;20077;-70
2022/07/13 14:43:41;;;;;;;16.77;2.90;;;;;;;;;;4952389;28;20085;-70
2022/07/13 14:46:06;;;;;;;17.75;3.38;;;;;;;;;;4939992;28;20045;-67
2022/07/13 14:48:32;;;;;;;19.50;3.08;;;;;;;;;;4943358;28;20050;-66
2022/07/13 14:50:57;;;;;;;14.48;3.40;;;;;;;;;;4940672;28;20038;-67